Time;durP1;ratioP1;P1;durP2;ratioP2;P2;SDS_P1;SDS_P2;PMS_P1;PMS_P2;Temp;Humidity;BMP_temperature;BMP_pressure;BME280_temperature;BME280_humidity;BME280_pressure;Samples;Min_cycle;Max_cycle;Signal;HPM_P1;HPM_P2
2022/08/31 04:31:30;;;;;;;;;3.00;3.00;;;;;-147.14;100.00;58812.66;5456022;23;8796;-68
2022/08/31 04:33:56;;;;;;;;;1.67;1.67;;;;;-147.14;100.00;58812.66;5016480;28;24712;-68
2022/08/31 04:36:24;;;;;;;;;1.67;1.67;;;;;-147.14;100.00;58812.66;5017480;28;8810;-68
2022/08/31 04:38:52;;;;;;;;;1.00;1.00;;;;;-147.14;100.00;58812.66;5015149;28;8852;-68
2022/08/31 04:41:20;;;;;;;;;2.75;2.75;;;;;-147.14;100.00;58812.66;5021645;28;8930;-68
2022/08/31 04:43:48;;;;;;;;;3.00;3.00;;;;;-147.14;100.00;58812.66;5015882;28;8828;-68
2022/08/31 04:46:13;;;;;;;;;4.00;3.25;;;;;-147.14;100.00;58812.66;5015167;28;8907;-68
2022/08/31 04:48:39;;;;;;;;;3.00;3.00;;;;;-147.14;100.00;58812.66;5021291;28;37266;-68
2022/08/31 04:51:19;;;;;;;;;3.00;3.00;;;;;-147.14;100.00;58812.66;5015872;28;8904;-68
2022/08/31 04:53:44;;;;;;;;;4.25;3.00;;;;;-147.14;100.00;58812.66;5028323;28;8825;-68
2022/08/31 04:56:13;;;;;;;;;2.00;2.00;;;;;-147.14;100.00;58812.66;5016376;28;8834;-68
2022/08/31 04:58:43;;;;;;;;;4.25;3.50;;;;;-147.14;100.00;58812.66;5013819;28;8822;-68
2022/08/31 05:01:10;;;;;;;;;2.00;2.00;;;;;-147.14;100.00;58812.66;5013853;28;8821;-68
2022/08/31 05:03:36;;;;;;;;;3.00;2.00;;;;;-147.14;100.00;58812.66;5023225;28;8764;-68
2022/08/31 05:06:02;;;;;;;;;3.00;3.00;;;;;-147.14;100.00;58812.66;5028517;28;8810;-68
2022/08/31 05:08:27;;;;;;;;;2.00;2.00;;;;;-147.14;100.00;58812.66;5026175;28;8861;-68
2022/08/31 05:10:53;;;;;;;;;4.00;3.00;;;;;-147.14;100.00;58812.66;5025058;28;8847;-68
2022/08/31 05:13:18;;;;;;;;;4.00;2.33;;;;;-147.14;100.00;58812.66;5017754;28;8844;-68
2022/08/31 05:15:43;;;;;;;;;4.67;4.67;;;;;-147.14;100.00;58812.66;5027197;28;36139;-70
2022/08/31 05:18:10;;;;;;;;;2.00;2.00;;;;;-147.14;100.00;58812.66;5026825;28;31766;-68
2022/08/31 05:20:37;;;;;;;;;4.00;2.00;;;;;-147.14;100.00;58812.66;5024636;28;9788;-68
2022/08/31 05:23:03;;;;;;;;;2.25;2.25;;;;;-147.14;100.00;58812.66;5020118;28;8855;-68
2022/08/31 05:25:29;;;;;;;;;3.33;3.33;;;;;-147.14;100.00;58812.66;5024380;28;8842;-68
2022/08/31 05:27:55;;;;;;;;;2.00;2.00;;;;;-147.14;100.00;58812.66;5016949;28;36228;-68
2022/08/31 05:30:20;;;;;;;;;2.67;2.67;;;;;-147.14;100.00;58812.66;5017387;28;8842;-69
2022/08/31 05:32:46;;;;;;;;;3.00;3.00;;;;;-147.14;100.00;58812.66;5022029;28;8857;-68
2022/08/31 05:35:12;;;;;;;;;2.33;2.33;;;;;-147.14;100.00;58812.66;5028231;28;8827;-68
2022/08/31 05:37:38;;;;;;;;;3.75;3.00;;;;;-147.14;100.00;58812.66;5022508;28;8823;-69
2022/08/31 05:40:04;;;;;;;;;3.00;3.00;;;;;-147.14;100.00;58812.66;5024181;28;8845;-68
2022/08/31 05:42:30;;;;;;;;;2.25;1.75;;;;;-147.14;100.00;58812.66;5020062;28;8754;-68
2022/08/31 05:44:55;;;;;;;;;1.00;1.00;;;;;-147.14;100.00;58812.66;5036483;28;31598;-68
2022/08/31 05:47:20;;;;;;;;;2.33;2.33;;;;;-147.14;100.00;58812.66;5022178;28;30195;-68
2022/08/31 05:49:46;;;;;;;;;5.00;3.00;;;;;-147.14;100.00;58812.66;5016706;28;28169;-68
2022/08/31 05:52:12;;;;;;;;;4.00;4.00;;;;;-147.14;100.00;58812.66;5022178;28;8862;-68
2022/08/31 05:54:38;;;;;;;;;4.50;3.25;;;;;-147.14;100.00;58812.66;5031431;28;9673;-68
2022/08/31 05:57:04;;;;;;;;;3.00;2.75;;;;;-147.14;100.00;58812.66;5027223;28;8826;-69
2022/08/31 05:59:30;;;;;;;;;2.33;2.33;;;;;-147.14;100.00;58812.66;5029179;28;8815;-68
2022/08/31 06:01:56;;;;;;;;;3.00;3.00;;;;;-147.14;100.00;58812.66;5023761;28;8851;-68
2022/08/31 06:04:21;;;;;;;;;2.00;2.00;;;;;-147.14;100.00;58812.66;5025387;28;8924;-68
2022/08/31 06:06:46;;;;;;;;;2.00;2.00;;;;;-147.14;100.00;58812.66;5027311;28;20074;-68
2022/08/31 06:09:12;;;;;;;;;5.00;4.67;;;;;-147.14;100.00;58812.66;5027964;28;35669;-67
2022/08/31 06:11:40;;;;;;;;;3.67;2.00;;;;;-147.14;100.00;58812.66;5023953;28;8920;-68
2022/08/31 06:14:08;;;;;;;;;4.75;2.75;;;;;-147.14;100.00;58812.66;5019413;28;8785;-67
2022/08/31 06:16:34;;;;;;;;;4.25;4.00;;;;;-147.14;100.00;58812.66;5014187;28;8810;-68
2022/08/31 06:19:03;;;;;;;;;2.75;2.75;;;;;-147.14;100.00;58812.66;5017203;28;8818;-67
2022/08/31 06:21:31;;;;;;;;;4.50;3.25;;;;;-147.14;100.00;58812.66;5027118;28;8833;-68
2022/08/31 06:23:58;;;;;;;;;6.25;3.50;;;;;-147.14;100.00;58812.66;5025432;28;8815;-68
2022/08/31 06:26:26;;;;;;;;;2.00;2.00;;;;;-147.14;100.00;58812.66;5024163;28;8885;-67
2022/08/31 06:28:54;;;;;;;;;5.00;3.00;;;;;-147.14;100.00;58812.66;5017816;28;8803;-68
2022/08/31 06:31:36;;;;;;;;;8.00;5.00;;;;;-147.14;100.00;58812.66;5024007;28;8824;-68
2022/08/31 06:34:03;;;;;;;;;4.00;4.00;;;;;-147.14;100.00;58812.66;5020681;28;8972;-67
2022/08/31 06:36:29;;;;;;;;;4.00;4.00;;;;;-147.14;100.00;58812.66;5021095;28;8928;-67
2022/08/31 06:38:58;;;;;;;;;3.00;3.00;;;;;-147.14;100.00;58812.66;5016874;28;8804;-68
2022/08/31 06:41:29;;;;;;;;;4.75;4.00;;;;;-147.14;100.00;58812.66;5021666;28;10236;-68
2022/08/31 06:43:57;;;;;;;;;3.00;2.00;;;;;-147.14;100.00;58812.66;5017945;28;8818;-70
2022/08/31 06:46:23;;;;;;;;;4.25;2.75;;;;;-147.14;100.00;58812.66;5017710;28;8814;-69
2022/08/31 06:48:51;;;;;;;;;3.67;3.00;;;;;-147.14;100.00;58812.66;5023288;28;8937;-69
2022/08/31 06:51:17;;;;;;;;;3.75;3.50;;;;;-147.14;100.00;58812.66;5019655;28;8836;-69
2022/08/31 06:53:42;;;;;;;;;2.67;2.67;;;;;-147.14;100.00;58812.66;5019699;28;8839;-70
2022/08/31 06:56:16;;;;;;;;;5.00;4.00;;;;;-147.14;100.00;58812.66;5026921;28;8885;-69
2022/08/31 06:58:42;;;;;;;;;4.50;3.00;;;;;-147.14;100.00;58812.66;5029362;28;8799;-70
2022/08/31 07:01:13;;;;;;;;;3.00;3.00;;;;;-147.14;100.00;58812.66;5025659;28;8842;-69
2022/08/31 07:03:42;;;;;;;;;2.50;2.25;;;;;-147.14;100.00;58812.66;5017708;28;8920;-70
2022/08/31 07:06:11;;;;;;;;;3.50;3.50;;;;;-147.14;100.00;58812.66;5024820;28;8811;-69
2022/08/31 07:08:38;;;;;;;;;2.00;2.00;;;;;-147.14;100.00;58812.66;5019691;28;8799;-69
2022/08/31 07:11:04;;;;;;;;;4.00;3.00;;;;;-147.14;100.00;58812.66;5017250;28;8798;-69
2022/08/31 07:13:30;;;;;;;;;4.00;3.00;;;;;-147.14;100.00;58812.66;5022460;28;8878;-71
2022/08/31 07:16:06;;;;;;;;;2.67;2.67;;;;;-147.14;100.00;58812.66;5024323;28;8814;-68
2022/08/31 07:18:32;;;;;;;;;2.60;2.60;;;;;-147.14;100.00;58812.66;5017697;28;8884;-64
2022/08/31 07:21:19;;;;;;;;;3.00;3.00;;;;;-147.14;100.00;58812.66;5021990;28;32452;-64
2022/08/31 07:23:47;;;;;;;;;3.75;3.75;;;;;-147.14;100.00;58812.66;5013097;28;8836;-65
2022/08/31 07:26:16;;;;;;;;;1.75;1.75;;;;;-147.14;100.00;58812.66;5015112;28;8814;-63
2022/08/31 07:28:42;;;;;;;;;5.00;3.40;;;;;-147.14;100.00;58812.66;5015770;28;8755;-65
2022/08/31 07:31:08;;;;;;;;;8.75;5.50;;;;;-147.14;100.00;58812.66;5021434;28;8839;-65
2022/08/31 07:33:37;;;;;;;;;3.40;3.40;;;;;-147.14;100.00;58812.66;5021149;28;8811;-64
2022/08/31 07:36:09;;;;;;;;;5.75;4.75;;;;;-147.14;100.00;58812.66;5013632;28;8848;-65
2022/08/31 07:44:03;;;;;;;;;2.00;2.00;;;;;-147.14;100.00;58812.66;5022804;28;8707;-68
2022/08/31 07:46:28;;;;;;;;;3.00;3.00;;;;;-147.14;100.00;58812.66;5008541;28;8854;-68
2022/08/31 07:48:55;;;;;;;;;5.67;4.33;;;;;-147.14;100.00;58812.66;5022472;28;8827;-68
2022/08/31 07:51:22;;;;;;;;;1.80;1.20;;;;;-147.14;100.00;58812.66;4999270;28;8935;-68
2022/08/31 07:53:48;;;;;;;;;4.80;1.80;;;;;-147.14;100.00;58812.66;5021489;28;9195;-67
2022/08/31 07:56:16;;;;;;;;;4.25;4.25;;;;;-147.14;100.00;58812.66;5021596;28;8822;-68
2022/08/31 07:58:41;;;;;;;;;2.80;2.80;;;;;-147.14;100.00;58812.66;5003159;28;9770;-68
2022/08/31 08:01:07;;;;;;;;;2.25;2.25;;;;;-147.14;100.00;58812.66;5010887;28;8863;-68
2022/08/31 08:03:32;;;;;;;;;2.50;2.50;;;;;-147.14;100.00;58812.66;5024989;28;8927;-68
2022/08/31 08:05:58;;;;;;;;;2.00;2.00;;;;;-147.14;100.00;58812.66;5018105;28;37257;-67
2022/08/31 08:08:24;;;;;;;;;3.00;3.00;;;;;-147.14;100.00;58812.66;5017846;28;8810;-68
2022/08/31 08:10:49;;;;;;;;;1.80;1.80;;;;;-147.14;100.00;58812.66;5016252;28;8813;-69
2022/08/31 08:13:18;;;;;;;;;3.00;3.00;;;;;-147.14;100.00;58812.66;5023600;28;8818;-67
2022/08/31 08:15:44;;;;;;;;;3.25;2.75;;;;;-147.14;100.00;58812.66;5021319;28;8830;-67
2022/08/31 08:18:12;;;;;;;;;6.00;5.00;;;;;-147.14;100.00;58812.66;5018613;28;8843;-67
2022/08/31 08:20:37;;;;;;;;;6.50;6.00;;;;;-147.14;100.00;58812.66;5021674;28;10839;-66
2022/08/31 08:23:11;;;;;;;;;9.67;4.33;;;;;-147.14;100.00;58812.66;5015756;28;8803;-66
2022/08/31 08:25:36;;;;;;;;;4.25;4.25;;;;;-147.14;100.00;58812.66;5015058;28;8829;-66
2022/08/31 08:28:02;;;;;;;;;5.00;4.00;;;;;-147.14;100.00;58812.66;5020462;28;8810;-69
2022/08/31 08:30:27;;;;;;;;;4.67;4.67;;;;;-147.14;100.00;58812.66;5022888;28;9553;-64
2022/08/31 08:32:52;;;;;;;;;6.00;5.00;;;;;-147.14;100.00;58812.66;5014519;28;8880;-65
2022/08/31 08:35:18;;;;;;;;;3.33;3.33;;;;;-147.14;100.00;58812.66;5006250;28;8837;-64
2022/08/31 08:37:47;;;;;;;;;4.33;4.33;;;;;-147.14;100.00;58812.66;5017044;28;8823;-65
2022/08/31 08:40:25;;;;;;;;;3.00;3.00;;;;;-147.14;100.00;58812.66;5018346;28;8846;-65
2022/08/31 08:42:52;;;;;;;;;3.75;3.75;;;;;-147.14;100.00;58812.66;5030667;28;8922;-64
2022/08/31 08:45:17;;;;;;;;;4.50;3.50;;;;;-147.14;100.00;58812.66;5022431;28;8823;-65
2022/08/31 08:47:44;;;;;;;;;4.00;3.00;;;;;-147.14;100.00;58812.66;5022820;28;8872;-64
2022/08/31 08:50:09;;;;;;;;;6.50;6.25;;;;;-147.14;100.00;58812.66;5008270;28;8802;-64
2022/08/31 08:52:40;;;;;;;;;5.00;4.00;;;;;-147.14;100.00;58812.66;5014705;28;23034;-64
2022/08/31 08:55:14;;;;;;;;;3.75;3.75;;;;;-147.14;100.00;58812.66;5030755;28;8812;-66
2022/08/31 08:57:42;;;;;;;;;5.00;3.25;;;;;-147.14;100.00;58812.66;5019176;28;8818;-64
2022/08/31 09:00:12;;;;;;;;;7.25;7.00;;;;;-147.14;100.00;58812.66;5022477;28;8860;-65
2022/08/31 09:02:42;;;;;;;;;7.25;5.25;;;;;-147.14;100.00;58812.66;5025226;28;8805;-64
2022/08/31 09:05:48;;;;;;;;;5.00;4.25;;;;;-147.14;100.00;58812.66;5026587;28;8834;-63
2022/08/31 09:08:27;;;;;;;;;4.20;4.20;;;;;-147.14;100.00;58812.66;5023234;28;8839;-64
2022/08/31 09:10:59;;;;;;;;;5.00;5.00;;;;;-147.14;100.00;58812.66;5022913;28;8808;-65
2022/08/31 09:13:37;;;;;;;;;3.40;3.40;;;;;-147.14;100.00;58812.66;5023069;28;8748;-63
2022/08/31 09:16:21;;;;;;;;;2.60;2.60;;;;;-147.14;100.00;58812.66;5032899;28;8807;-64
2022/08/31 09:18:59;;;;;;;;;3.20;3.20;;;;;-147.14;100.00;58812.66;5022514;28;8762;-63
2022/08/31 09:21:45;;;;;;;;;5.60;3.00;;;;;-147.14;100.00;58812.66;5027831;28;8843;-63
2022/08/31 09:24:22;;;;;;;;;5.00;3.60;;;;;-147.14;100.00;58812.66;5017007;28;8944;-63
2022/08/31 09:27:19;;;;;;;;;4.60;3.00;;;;;-147.14;100.00;58812.66;5029318;28;9221;-65
2022/08/31 09:29:46;;;;;;;;;5.20;4.00;;;;;-147.14;100.00;58812.66;5018104;28;8805;-64
2022/08/31 09:32:21;;;;;;;;;2.60;2.60;;;;;-147.14;100.00;58812.66;5022003;28;8838;-64
2022/08/31 09:35:00;;;;;;;;;3.60;2.40;;;;;-147.14;100.00;58812.66;5008775;28;8811;-64
2022/08/31 09:37:32;;;;;;;;;2.00;2.00;;;;;-147.14;100.00;58812.66;5018032;28;10227;-64
2022/08/31 09:40:30;;;;;;;;;4.80;4.80;;;;;-147.14;100.00;58812.66;5021604;28;8867;-63
2022/08/31 09:43:23;;;;;;;;;4.00;4.00;;;;;-147.14;100.00;58812.66;5021536;28;8814;-64
2022/08/31 09:46:10;;;;;;;;;8.20;8.20;;;;;-147.14;100.00;58812.66;4983068;28;8826;-64
2022/08/31 09:48:54;;;;;;;;;3.20;3.00;;;;;-147.14;100.00;58812.66;5016691;28;8829;-63
2022/08/31 09:51:28;;;;;;;;;6.20;4.40;;;;;-147.14;100.00;58812.66;5018682;28;8882;-64
2022/08/31 09:56:55;;;;;;;;;7.00;4.80;;;;;-147.14;100.00;58812.66;5028713;28;8811;-59
2022/08/31 09:59:42;;;;;;;;;4.20;4.20;;;;;-147.14;100.00;58812.66;5030986;28;9927;-65
2022/08/31 10:02:08;;;;;;;;;3.00;3.00;;;;;-147.14;100.00;58812.66;5022121;28;8845;-67
2022/08/31 10:04:44;;;;;;;;;3.00;3.00;;;;;-147.14;100.00;58812.66;5014449;28;8818;-62
2022/08/31 10:07:46;;;;;;;;;3.60;3.00;;;;;-147.14;100.00;58812.66;5026550;28;8820;-65
2022/08/31 10:10:28;;;;;;;;;0.00;0.00;;;;;-147.14;100.00;58812.66;5015554;28;9863;-67
2022/08/31 10:13:02;;;;;;;;;1.40;1.40;;;;;-147.14;100.00;58812.66;5022688;28;9029;-66
2022/08/31 10:15:41;;;;;;;;;1.40;1.40;;;;;-147.14;100.00;58812.66;5027792;28;8806;-66
2022/08/31 10:18:18;;;;;;;;;5.50;4.25;;;;;-147.14;100.00;58812.66;5020167;28;9789;-66
2022/08/31 10:20:54;;;;;;;;;2.25;2.25;;;;;-147.14;100.00;58812.66;5022778;28;8988;-68
2022/08/31 10:23:27;;;;;;;;;3.60;3.40;;;;;-147.14;100.00;58812.66;5019621;28;8798;-65
2022/08/31 10:25:58;;;;;;;;;4.20;4.20;;;;;-147.14;100.00;58812.66;5018155;28;8796;-68
2022/08/31 10:28:40;;;;;;;;;5.00;5.00;;;;;-147.14;100.00;58812.66;5016919;28;8854;-70
2022/08/31 10:31:19;;;;;;;;;3.50;3.50;;;;;-147.14;100.00;58812.66;5021198;28;8879;-71
2022/08/31 10:36:44;;;;;;;;;2.00;1.60;;;;;-147.14;100.00;58812.66;5022474;28;8800;-68
2022/08/31 10:39:19;;;;;;;;;5.25;5.25;;;;;-147.14;100.00;58812.66;5016054;28;8941;-69
2022/08/31 10:41:48;;;;;;;;;1.25;1.25;;;;;-147.14;100.00;58812.66;5024897;28;8823;-69
2022/08/31 10:44:25;;;;;;;;;2.25;2.25;;;;;-147.14;100.00;58812.66;5033676;28;8838;-68
2022/08/31 10:46:57;;;;;;;;;2.50;2.50;;;;;-147.14;100.00;58812.66;5018849;28;8810;-69
2022/08/31 10:49:23;;;;;;;;;5.50;5.50;;;;;-147.14;100.00;58812.66;5015998;28;9703;-69
2022/08/31 10:52:28;;;;;;;;;1.00;1.00;;;;;-147.14;100.00;58812.66;5026379;28;17419;-69
2022/08/31 10:55:06;;;;;;;;;0.00;0.00;;;;;-147.14;100.00;58812.66;5013728;28;9592;-69
2022/08/31 10:57:45;;;;;;;;;1.20;1.20;;;;;-147.14;100.00;58812.66;5031012;28;8827;-69
2022/08/31 11:00:47;;;;;;;;;1.60;1.60;;;;;-147.14;100.00;58812.66;5021369;28;8826;-69
2022/08/31 11:03:34;;;;;;;;;2.20;2.20;;;;;-147.14;100.00;58812.66;5026910;28;8912;-68
2022/08/31 11:06:24;;;;;;;;;3.00;3.00;;;;;-147.14;100.00;58812.66;5027867;28;8749;-67
2022/08/31 11:09:03;;;;;;;;;5.00;3.00;;;;;-147.14;100.00;58812.66;5032870;28;8833;-67
2022/08/31 11:11:34;;;;;;;;;1.40;1.40;;;;;-147.14;100.00;58812.66;5031383;28;8954;-67
2022/08/31 11:14:42;;;;;;;;;2.50;2.50;;;;;-147.14;100.00;58812.66;5025879;28;8912;-64
2022/08/31 11:17:07;;;;;;;;;3.75;3.75;;;;;-147.14;100.00;58812.66;5018743;28;8821;-64
2022/08/31 11:20:18;;;;;;;;;2.00;2.00;;;;;-147.14;100.00;58812.66;5023752;28;8830;-64
2022/08/31 11:23:05;;;;;;;;;4.00;4.00;;;;;-147.14;100.00;58812.66;5005587;28;8715;-64
2022/08/31 11:25:54;;;;;;;;;1.75;1.75;;;;;-147.14;100.00;58812.66;5030500;28;8799;-64
2022/08/31 11:28:31;;;;;;;;;1.60;1.60;;;;;-147.14;100.00;58812.66;5025850;28;8787;-64
2022/08/31 11:31:00;;;;;;;;;5.25;5.25;;;;;-147.14;100.00;58812.66;5021666;28;8928;-63
2022/08/31 11:33:27;;;;;;;;;3.75;3.75;;;;;-147.14;100.00;58812.66;5028967;28;8788;-63
2022/08/31 11:35:59;;;;;;;;;3.20;3.20;;;;;-147.14;100.00;58812.66;5024700;28;8782;-64
2022/08/31 11:38:40;;;;;;;;;3.60;3.60;;;;;-147.14;100.00;58812.66;5014779;28;8802;-65
2022/08/31 11:41:09;;;;;;;;;3.00;3.00;;;;;-147.14;100.00;58812.66;5019612;28;10102;-64
2022/08/31 11:43:35;;;;;;;;;1.20;1.20;;;;;-147.14;100.00;58812.66;5028040;28;8854;-64
2022/08/31 11:46:24;;;;;;;;;3.67;3.67;;;;;-147.14;100.00;58812.66;5017153;28;8830;-63
2022/08/31 11:48:50;;;;;;;;;1.75;1.75;;;;;-147.14;100.00;58812.66;5020876;28;8811;-64
2022/08/31 11:51:32;;;;;;;;;3.00;3.00;;;;;-147.14;100.00;58812.66;5024340;28;8795;-64
2022/08/31 11:54:00;;;;;;;;;3.25;3.25;;;;;-147.14;100.00;58812.66;5023810;28;8854;-64
2022/08/31 11:56:39;;;;;;;;;1.00;1.00;;;;;-147.14;100.00;58812.66;5019999;28;8857;-63
2022/08/31 11:59:20;;;;;;;;;2.25;2.25;;;;;-147.14;100.00;58812.66;5020239;28;8818;-63
2022/08/31 12:01:46;;;;;;;;;2.00;2.00;;;;;-147.14;100.00;58812.66;5025804;28;8904;-63
2022/08/31 12:04:40;;;;;;;;;2.00;2.00;;;;;-147.14;100.00;58812.66;5022281;28;36454;-62
2022/08/31 12:07:09;;;;;;;;;3.00;3.00;;;;;-147.14;100.00;58812.66;5015385;28;8817;-63
2022/08/31 12:09:54;;;;;;;;;2.25;2.25;;;;;-147.14;100.00;58812.66;5025219;28;8777;-63
2022/08/31 12:12:56;;;;;;;;;2.00;2.00;;;;;-147.14;100.00;58812.66;5023882;28;8802;-63
2022/08/31 12:15:47;;;;;;;;;3.00;3.00;;;;;-147.14;100.00;58812.66;5022939;28;8822;-63
2022/08/31 12:18:28;;;;;;;;;1.75;1.75;;;;;-147.14;100.00;58812.66;5019965;28;8833;-65
2022/08/31 12:24:10;;;;;;;;;3.50;3.50;;;;;-147.14;100.00;58812.66;5028494;28;8721;-66
2022/08/31 12:26:50;;;;;;;;;4.75;4.75;;;;;-147.14;100.00;58812.66;5024183;28;8798;-65
2022/08/31 12:29:20;;;;;;;;;5.50;4.50;;;;;-147.14;100.00;58812.66;5014075;28;9652;-65
2022/08/31 12:32:23;;;;;;;;;4.50;4.50;;;;;-147.14;100.00;58812.66;5022972;28;8796;-65
2022/08/31 12:34:54;;;;;;;;;3.25;3.25;;;;;-147.14;100.00;58812.66;5033560;28;8788;-65
2022/08/31 12:37:23;;;;;;;;;3.25;3.25;;;;;-147.14;100.00;58812.66;5023842;28;9735;-66
2022/08/31 12:40:04;;;;;;;;;4.00;4.00;;;;;-147.14;100.00;58812.66;5031231;28;9792;-65
2022/08/31 12:42:30;;;;;;;;;5.00;5.00;;;;;-147.14;100.00;58812.66;5027633;28;8800;-66
2022/08/31 12:44:55;;;;;;;;;3.67;3.67;;;;;-147.14;100.00;58812.66;5023847;28;8841;-65
2022/08/31 12:48:02;;;;;;;;;3.67;3.67;;;;;-147.14;100.00;58812.66;5025701;28;29599;-66
2022/08/31 12:50:36;;;;;;;;;4.50;4.50;;;;;-147.14;100.00;58812.66;5024403;28;8806;-65
2022/08/31 12:53:35;;;;;;;;;4.25;4.25;;;;;-147.14;100.00;58812.66;5018997;28;9018;-66
2022/08/31 12:56:14;;;;;;;;;5.00;5.00;;;;;-147.14;100.00;58812.66;5021716;28;8791;-65
2022/08/31 12:58:49;;;;;;;;;4.50;4.50;;;;;-147.14;100.00;58812.66;5024413;28;8746;-65
2022/08/31 13:01:19;;;;;;;;;3.25;3.25;;;;;-147.14;100.00;58812.66;5021317;28;8842;-66
2022/08/31 13:03:48;;;;;;;;;5.00;5.00;;;;;-147.14;100.00;58812.66;5014335;28;8790;-65
2022/08/31 13:06:22;;;;;;;;;3.50;3.50;;;;;-147.14;100.00;58812.66;5019990;28;8809;-65
2022/08/31 13:08:49;;;;;;;;;5.50;5.50;;;;;-147.14;100.00;58812.66;5017456;28;8805;-65
2022/08/31 13:11:17;;;;;;;;;1.00;1.00;;;;;-147.14;100.00;58812.66;5026023;28;8928;-64
2022/08/31 13:13:42;;;;;;;;;6.25;6.25;;;;;-147.14;100.00;58812.66;5022255;28;8820;-65
2022/08/31 13:16:10;;;;;;;;;5.00;5.00;;;;;-147.14;100.00;58812.66;5021915;28;33894;-65
2022/08/31 13:18:35;;;;;;;;;9.25;7.00;;;;;-147.14;100.00;58812.66;5019464;28;9727;-64
2022/08/31 13:21:05;;;;;;;;;5.33;5.33;;;;;-147.14;100.00;58812.66;5023780;28;8865;-63
2022/08/31 13:23:33;;;;;;;;;3.00;3.00;;;;;-147.14;100.00;58812.66;5027654;28;8732;-63
2022/08/31 13:26:22;;;;;;;;;4.20;4.20;;;;;-147.14;100.00;58812.66;5022152;28;8786;-63
2022/08/31 13:28:53;;;;;;;;;6.80;6.80;;;;;-147.14;100.00;58812.66;5026622;28;8819;-62
2022/08/31 13:31:23;;;;;;;;;4.20;4.20;;;;;-147.14;100.00;58812.66;5029234;28;8819;-64
2022/08/31 13:33:59;;;;;;;;;4.20;4.20;;;;;-147.14;100.00;58812.66;5013353;28;8809;-64
2022/08/31 13:36:51;;;;;;;;;2.80;2.80;;;;;-147.14;100.00;58812.66;5025606;28;8813;-64
2022/08/31 13:39:22;;;;;;;;;5.40;5.00;;;;;-147.14;100.00;58812.66;5020443;28;8829;-64
2022/08/31 13:42:06;;;;;;;;;2.20;2.20;;;;;-147.14;100.00;58812.66;5030097;28;8818;-64
2022/08/31 13:44:38;;;;;;;;;6.75;5.75;;;;;-147.14;100.00;58812.66;5026364;28;8869;-64
2022/08/31 13:47:16;;;;;;;;;6.40;6.40;;;;;-147.14;100.00;58812.66;5028464;28;8797;-64
2022/08/31 13:49:43;;;;;;;;;6.60;5.80;;;;;-147.14;100.00;58812.66;5029376;28;8795;-64
2022/08/31 13:52:35;;;;;;;;;4.75;4.75;;;;;-147.14;100.00;58812.66;5030080;28;8740;-62
2022/08/31 13:55:10;;;;;;;;;4.25;4.25;;;;;-147.14;100.00;58812.66;5013245;28;9754;-62
2022/08/31 13:57:37;;;;;;;;;6.50;6.50;;;;;-147.14;100.00;58812.66;5025648;28;8809;-63
2022/08/31 14:00:23;;;;;;;;;5.00;5.00;;;;;-147.14;100.00;58812.66;5021100;28;8938;-62
2022/08/31 14:02:48;;;;;;;;;7.00;7.00;;;;;-147.14;100.00;58812.66;5023614;28;8812;-62
2022/08/31 14:05:28;;;;;;;;;3.67;3.67;;;;;-147.14;100.00;58812.66;5028141;28;32918;-64
2022/08/31 14:07:55;;;;;;;;;6.50;5.75;;;;;-147.14;100.00;58812.66;5019245;28;8838;-63
2022/08/31 14:10:25;;;;;;;;;4.20;4.20;;;;;-147.14;100.00;58812.66;5021731;28;8841;-63
2022/08/31 14:13:08;;;;;;;;;4.20;3.80;;;;;-147.14;100.00;58812.66;5025226;28;8798;-64
2022/08/31 14:15:49;;;;;;;;;9.00;9.00;;;;;-147.14;100.00;58812.66;5030823;28;8822;-63
2022/08/31 14:18:41;;;;;;;;;3.00;3.00;;;;;-147.14;100.00;58812.66;5023994;28;8811;-63
2022/08/31 14:21:06;;;;;;;;;4.00;4.00;;;;;-147.14;100.00;58812.66;5031085;28;8855;-63
2022/08/31 14:23:33;;;;;;;;;4.00;4.00;;;;;-147.14;100.00;58812.66;5028365;28;8812;-62
2022/08/31 14:26:11;;;;;;;;;6.75;6.75;;;;;-147.14;100.00;58812.66;5029069;28;8788;-64
2022/08/31 14:28:40;;;;;;;;;5.25;5.25;;;;;-147.14;100.00;58812.66;5030183;28;8894;-63
2022/08/31 14:31:23;;;;;;;;;5.00;5.00;;;;;-147.14;100.00;58812.66;5021909;28;8819;-64
2022/08/31 14:33:54;;;;;;;;;3.00;3.00;;;;;-147.14;100.00;58812.66;5020826;28;8807;-64
2022/08/31 14:36:23;;;;;;;;;5.25;5.25;;;;;-147.14;100.00;58812.66;5033524;28;9715;-62
2022/08/31 14:38:53;;;;;;;;;7.75;7.75;;;;;-147.14;100.00;58812.66;5022730;28;8896;-62
2022/08/31 14:41:25;;;;;;;;;6.75;6.00;;;;;-147.14;100.00;58812.66;5024733;28;8815;-62
2022/08/31 14:43:51;;;;;;;;;8.25;8.25;;;;;-147.14;100.00;58812.66;5025550;28;8815;-63
2022/08/31 14:46:24;;;;;;;;;5.67;5.67;;;;;-147.14;100.00;58812.66;5026640;28;35132;-62
2022/08/31 14:48:50;;;;;;;;;5.00;5.00;;;;;-147.14;100.00;58812.66;5019399;28;8810;-62
2022/08/31 14:51:15;;;;;;;;;6.33;6.33;;;;;-147.14;100.00;58812.66;5023808;28;36455;-61
2022/08/31 14:53:41;;;;;;;;;3.67;3.67;;;;;-147.14;100.00;58812.66;5021295;28;31374;-61
2022/08/31 14:56:17;;;;;;;;;4.75;4.75;;;;;-147.14;100.00;58812.66;5028790;28;8811;-61
2022/08/31 14:58:43;;;;;;;;;5.40;4.80;;;;;-147.14;100.00;58812.66;5020292;28;8814;-61
2022/08/31 15:01:09;;;;;;;;;7.67;7.67;;;;;-147.14;100.00;58812.66;5020603;28;8857;-61
2022/08/31 15:03:42;;;;;;;;;3.33;3.33;;;;;-147.14;100.00;58812.66;5025159;28;10242;-61
2022/08/31 15:06:07;;;;;;;;;3.25;2.00;;;;;-147.14;100.00;58812.66;5024059;28;8803;-62
2022/08/31 15:08:35;;;;;;;;;5.33;5.33;;;;;-147.14;100.00;58812.66;5023037;28;33398;-61
2022/08/31 15:11:01;;;;;;;;;2.25;2.25;;;;;-147.14;100.00;58812.66;5026478;28;8811;-62
2022/08/31 15:13:32;;;;;;;;;7.00;7.00;;;;;-147.14;100.00;58812.66;5028730;28;8822;-64
2022/08/31 15:16:01;;;;;;;;;6.50;5.00;;;;;-147.14;100.00;58812.66;5024024;28;8832;-60
2022/08/31 15:18:27;;;;;;;;;4.75;4.00;;;;;-147.14;100.00;58812.66;5021871;28;8894;-62
2022/08/31 15:20:54;;;;;;;;;3.50;3.50;;;;;-147.14;100.00;58812.66;5018943;28;8760;-62
2022/08/31 15:23:20;;;;;;;;;4.25;4.00;;;;;-147.14;100.00;58812.66;5026177;28;8802;-61
2022/08/31 15:25:45;;;;;;;;;6.00;4.00;;;;;-147.14;100.00;58812.66;5018444;28;29370;-62
2022/08/31 15:28:10;;;;;;;;;8.67;8.67;;;;;-147.14;100.00;58812.66;5026041;28;31752;-62
2022/08/31 15:30:38;;;;;;;;;8.00;8.00;;;;;-147.14;100.00;58812.66;5020444;28;29258;-65
2022/08/31 15:33:05;;;;;;;;;5.00;5.00;;;;;-147.14;100.00;58812.66;5015644;28;8850;-65
2022/08/31 15:35:31;;;;;;;;;3.00;3.00;;;;;-147.14;100.00;58812.66;5018533;28;8802;-65
2022/08/31 15:38:00;;;;;;;;;5.33;5.33;;;;;-147.14;100.00;58812.66;5017182;28;8821;-65
2022/08/31 15:40:30;;;;;;;;;9.25;8.00;;;;;-147.14;100.00;58812.66;5023828;28;11489;-65
2022/08/31 15:42:56;;;;;;;;;5.00;5.00;;;;;-147.14;100.00;58812.66;5026861;28;8783;-65
2022/08/31 15:45:24;;;;;;;;;6.67;5.00;;;;;-147.14;100.00;58812.66;5023063;28;8806;-66
2022/08/31 15:50:34;;;;;;;;;7.25;7.25;;;;;-147.14;100.00;58812.66;5018845;28;8807;-65
2022/08/31 15:53:04;;;;;;;;;6.25;6.25;;;;;-147.14;100.00;58812.66;5025532;28;8808;-65
2022/08/31 15:55:29;;;;;;;;;4.75;4.75;;;;;-147.14;100.00;58812.66;5015343;28;8818;-65
2022/08/31 15:57:58;;;;;;;;;5.67;5.67;;;;;-147.14;100.00;58812.66;5018993;28;8810;-65
2022/08/31 16:00:26;;;;;;;;;5.50;5.00;;;;;-147.14;100.00;58812.66;5021204;28;8790;-65
2022/08/31 16:02:54;;;;;;;;;5.50;5.50;;;;;-147.14;100.00;58812.66;5018103;28;9755;-66
2022/08/31 16:05:20;;;;;;;;;6.50;5.00;;;;;-147.14;100.00;58812.66;5019023;28;8889;-66
2022/08/31 16:07:46;;;;;;;;;7.00;6.00;;;;;-147.14;100.00;58812.66;5016745;28;8814;-64
2022/08/31 16:10:12;;;;;;;;;6.00;6.00;;;;;-147.14;100.00;58812.66;5023734;28;8861;-64
2022/08/31 16:12:38;;;;;;;;;8.25;6.25;;;;;-147.14;100.00;58812.66;5018663;28;8807;-64
2022/08/31 16:15:05;;;;;;;;;6.33;5.67;;;;;-147.14;100.00;58812.66;5016101;28;8838;-64
2022/08/31 16:17:30;;;;;;;;;8.00;6.50;;;;;-147.14;100.00;58812.66;5016812;28;8848;-65
2022/08/31 16:19:56;;;;;;;;;6.67;6.67;;;;;-147.14;100.00;58812.66;5021817;28;8832;-64
2022/08/31 16:22:21;;;;;;;;;7.33;6.33;;;;;-147.14;100.00;58812.66;5023360;28;20184;-64
2022/08/31 16:24:47;;;;;;;;;6.33;6.33;;;;;-147.14;100.00;58812.66;5023855;28;16952;-65
2022/08/31 16:27:15;;;;;;;;;7.75;7.75;;;;;-147.14;100.00;58812.66;5015212;28;9709;-65